Albright, Illinois
Current Conditions -  °F | °C
As of 10:15 AM on Thursday 23 Oct 2014 (Local Time) from KPRG Reporting Station
Clear Clear  
Wind Chill: 52°   Ceiling: Unl
Heat Index: 52°   Visibility: 10mi
Dew Point: 45°   Wind: 6mph
Humidity: 78%   Direction: 170°S
Pressure: 30.25"   Gusts: NA
Location:  39.4361°N, 87.7043°W
Report Text: KPRG 231515Z AUTO 17005KT 10SM CLR 11/07 A3025 RMK AO2 T01120074
Loading
Personal Weather Stations






























Interactive Weather Map New forecast layout! Learn more

10-Day Weather Forecast

Advertisements
Track Severe Weather on mobile